This is the latest recevied weather packets stored in our database for station/object WV8BRW. If no packets are shown the sender has not sent any weather packets the latest 1 day(s).
| Time | Temp. | Humidity | Pressure | Rain* | Wind** | Luminosity | Snow |
|---|---|---|---|---|---|---|---|
| 1777998138 | 23.89° C | 60% | 1010 hPa | 0 mm | 0.45 m/s, 303° | 523 W/m² | - |
| 1777997835 | 23.89° C | 60% | 1010.1 hPa | 0 mm | 0.45 m/s, 352° | 448 W/m² | - |
| 1777997533 | 23.33° C | 54% | 1010 hPa | 0 mm | 1.34 m/s, 157° | 462 W/m² | - |
| 1777997230 | 23.89° C | 56% | 1010.2 hPa | 0 mm | 0.89 m/s, 319° | 439 W/m² | - |
| 1777996927 | 23.89° C | 58% | 1010.3 hPa | 0 mm | 1.34 m/s, 47° | 374 W/m² | - |
| 1777996623 | 23.33° C | 58% | 1010.2 hPa | 0 mm | 0.45 m/s, 10° | 434 W/m² | - |
| 1777996320 | 23.89° C | 56% | 1010.4 hPa | 0 mm | 0.89 m/s, 252° | 393 W/m² | - |
| 1777996016 | 23.33° C | 59% | 1010.2 hPa | 0 mm | 0 m/s | 387 W/m² | - |
| 1777995712 | 23.89° C | 58% | 1010.2 hPa | 0 mm | 1.79 m/s, 200° | 452 W/m² | - |
| 1777995409 | 23.33° C | 58% | 1010.5 hPa | 0 mm | 0.45 m/s, 326° | 517 W/m² | - |
| 1777995106 | 23.33° C | 55% | 1010.3 hPa | 0 mm | 1.34 m/s, 268° | 474 W/m² | - |
| 1777994803 | 23.33° C | 57% | 1010.1 hPa | 0 mm | 0.45 m/s, 331° | 500 W/m² | - |
| 1777994499 | 23.33° C | 59% | 1010.4 hPa | 0 mm | 1.34 m/s, 39° | 503 W/m² | - |
| 1777994194 | 22.78° C | 61% | 1010.2 hPa | 0 mm | 0.89 m/s, 255° | 433 W/m² | - |
| 1777993892 | 23.33° C | 60% | 1010.3 hPa | 0 mm | 0.45 m/s, 353° | 426 W/m² | - |
| 1777993588 | 22.78° C | 58% | 1010.3 hPa | 0 mm | 0.89 m/s, 252° | 441 W/m² | - |
| 1777993285 | 22.78° C | 59% | 1010.3 hPa | 0 mm | 0.45 m/s, 281° | 457 W/m² | - |
| 1777992980 | 22.78° C | 60% | 1010.3 hPa | 0 mm | 0 m/s | 412 W/m² | - |
| 1777992679 | 22.22° C | 61% | 1010.5 hPa | 0 mm | 0 m/s | 390 W/m² | - |
| 1777992376 | 22.22° C | 60% | 1010.3 hPa | 0 mm | 0 m/s | 271 W/m² | - |
| 1777992074 | 22.22° C | 56% | 1010.2 hPa | 0 mm | 1.34 m/s, 124° | 290 W/m² | - |
| 1777991771 | 22.22° C | 57% | 1010.5 hPa | 0 mm | 0.45 m/s, 356° | 383 W/m² | - |
| 1777991468 | 21.67° C | 58% | 1010.4 hPa | 0 mm | 0 m/s | 265 W/m² | - |
| 1777991166 | 22.22° C | 58% | 1010.4 hPa | 0 mm | 1.34 m/s, 116° | 310 W/m² | - |
| 1777990863 | 22.22° C | 59% | 1010.7 hPa | 0 mm | 1.34 m/s, 284° | 276 W/m² | - |
* Rain latest hour (hover to see other rain measurements)
** Current wind speed in m/s (hover to see current wind gust speed)